Time;durP1;ratioP1;P1;durP2;ratioP2;P2;SDS_P1;SDS_P2;PMS_P1;PMS_P2;Temp;Humidity;BMP_temperature;BMP_pressure;BME280_temperature;BME280_humidity;BME280_pressure;Samples;Min_cycle;Max_cycle;Signal;HPM_P1;HPM_P2
2022/09/29 00:00:53;;;;;;;1.73;1.00;;;9.60;99.80;;;;;;5034006;28;20742;-63
2022/09/29 00:03:21;;;;;;;1.60;0.70;;;9.60;99.90;;;;;;5034071;28;20226;-63
2022/09/29 00:05:52;;;;;;;2.30;0.80;;;9.60;99.90;;;;;;5033535;28;20260;-63
2022/09/29 00:08:20;;;;;;;3.00;0.85;;;9.60;99.90;;;;;;5034012;28;20238;-63
2022/09/29 00:10:47;;;;;;;1.75;0.98;;;9.60;99.90;;;;;;5033905;28;20227;-63
2022/09/29 00:13:15;;;;;;;4.18;0.95;;;9.60;99.90;;;;;;5033939;28;20719;-63
2022/09/29 00:15:42;;;;;;;1.65;0.80;;;9.60;99.90;;;;;;5033606;28;20230;-63
2022/09/29 00:18:10;;;;;;;1.85;0.98;;;9.60;99.90;;;;;;5033494;28;20258;-63
2022/09/29 00:20:37;;;;;;;1.80;0.93;;;9.60;99.90;;;;;;5033673;28;20195;-63
2022/09/29 00:23:06;;;;;;;1.60;0.70;;;9.60;99.90;;;;;;5033769;28;20199;-63
2022/09/29 00:25:33;;;;;;;1.70;0.75;;;9.50;99.70;;;;;;5033488;28;20282;-65
2022/09/29 00:27:59;;;;;;;2.63;1.00;;;9.50;99.70;;;;;;5033453;28;20191;-64
2022/09/29 00:30:27;;;;;;;1.92;0.90;;;9.50;99.80;;;;;;5032972;28;20187;-64
2022/09/29 00:32:54;;;;;;;1.80;0.80;;;9.50;99.80;;;;;;5033463;28;20245;-63
2022/09/29 00:35:21;;;;;;;1.90;1.00;;;9.50;99.70;;;;;;5033299;28;20330;-63
2022/09/29 00:37:48;;;;;;;3.45;0.90;;;9.50;99.60;;;;;;5033271;28;20273;-64
2022/09/29 00:40:16;;;;;;;1.95;0.90;;;9.40;99.60;;;;;;5033409;28;20218;-63
2022/09/29 00:42:44;;;;;;;2.97;1.00;;;9.40;99.60;;;;;;5033066;28;20241;-63
2022/09/29 00:45:21;;;;;;;3.58;1.30;;;9.40;99.30;;;;;;5033223;28;20191;-64
2022/09/29 00:47:53;;;;;;;2.80;1.05;;;9.40;99.40;;;;;;5032626;28;20614;-63
2022/09/29 00:50:25;;;;;;;1.90;0.80;;;9.40;99.40;;;;;;5033051;28;20198;-63
2022/09/29 00:52:57;;;;;;;1.77;0.88;;;9.40;99.60;;;;;;5033106;28;20311;-63
2022/09/29 00:55:28;;;;;;;2.22;1.20;;;9.40;99.80;;;;;;5033215;28;20288;-63
2022/09/29 00:58:00;;;;;;;4.78;1.10;;;9.40;99.90;;;;;;5032784;28;20690;-63
2022/09/29 01:00:27;;;;;;;2.10;0.80;;;9.40;99.90;;;;;;5033155;28;20536;-63
2022/09/29 01:03:00;;;;;;;1.70;0.70;;;9.40;99.90;;;;;;5032958;28;20222;-63
2022/09/29 01:05:32;;;;;;;1.60;0.70;;;9.40;99.80;;;;;;5033040;28;20233;-63
2022/09/29 01:08:09;;;;;;;2.00;1.02;;;9.40;99.90;;;;;;5032780;28;20214;-64
2022/09/29 01:10:38;;;;;;;2.10;0.98;;;9.40;99.90;;;;;;5032999;28;20207;-63
2022/09/29 01:13:05;;;;;;;3.63;1.10;;;9.40;99.90;;;;;;5032877;28;20245;-63
2022/09/29 01:15:33;;;;;;;2.13;1.45;;;9.30;99.90;;;;;;5032238;28;20187;-64
2022/09/29 01:18:01;;;;;;;2.50;1.20;;;9.30;99.90;;;;;;5032144;28;20569;-65
2022/09/29 01:20:33;;;;;;;1.98;1.20;;;9.30;99.90;;;;;;5032917;28;20531;-63
2022/09/29 01:23:45;;;;;;;1.98;1.08;;;9.30;99.90;;;;;;5032517;28;20207;-64
2022/09/29 01:26:49;;;;;;;1.92;0.90;;;9.30;99.90;;;;;;5032161;28;20194;-64
2022/09/29 01:29:46;;;;;;;1.95;1.13;;;9.20;99.90;;;;;;5032675;28;20249;-64
2022/09/29 01:32:22;;;;;;;1.90;1.10;;;9.10;99.90;;;;;;5006187;28;20198;-63
2022/09/29 01:35:00;;;;;;;3.13;1.10;;;9.10;99.90;;;;;;5032484;28;20241;-63
2022/09/29 01:37:38;;;;;;;2.00;1.08;;;9.10;99.90;;;;;;5032621;28;20272;-63
2022/09/29 01:40:10;;;;;;;4.63;1.27;;;9.20;99.90;;;;;;5032599;28;20642;-64
2022/09/29 01:42:44;;;;;;;3.22;1.70;;;9.10;99.90;;;;;;5032828;28;20237;-63
2022/09/29 01:45:18;;;;;;;2.00;1.40;;;9.20;99.90;;;;;;5032323;28;20203;-63
2022/09/29 01:47:50;;;;;;;2.35;1.30;;;9.10;99.90;;;;;;5032325;28;20265;-63
2022/09/29 01:50:23;;;;;;;2.00;1.20;;;9.00;99.90;;;;;;5032244;28;20233;-63
2022/09/29 01:52:54;;;;;;;2.53;1.15;;;9.10;99.90;;;;;;5031890;28;20191;-64
2022/09/29 01:55:25;;;;;;;2.20;1.05;;;9.10;99.90;;;;;;5032641;28;20230;-63
2022/09/29 01:57:56;;;;;;;2.10;1.17;;;9.10;99.90;;;;;;5032467;28;20254;-63
2022/09/29 02:00:23;;;;;;;2.78;1.00;;;9.10;99.90;;;;;;5032501;28;20191;-63
2022/09/29 02:02:57;;;;;;;2.83;1.77;;;9.10;99.90;;;;;;5032364;28;20267;-63
2022/09/29 02:05:29;;;;;;;3.75;1.55;;;9.10;99.90;;;;;;5032534;28;20264;-63
2022/09/29 02:07:59;;;;;;;2.65;1.35;;;9.20;99.90;;;;;;5032633;28;20226;-63
2022/09/29 02:10:31;;;;;;;2.60;1.70;;;9.20;99.90;;;;;;5032472;28;20203;-63
2022/09/29 02:13:00;;;;;;;3.03;1.30;;;9.20;99.90;;;;;;5032389;28;20234;-63
2022/09/29 02:15:31;;;;;;;2.60;1.63;;;9.20;99.90;;;;;;5031930;28;20206;-63
2022/09/29 02:18:03;;;;;;;2.30;1.42;;;9.20;99.90;;;;;;5032343;28;20620;-63
2022/09/29 02:20:30;;;;;;;2.38;1.38;;;9.20;99.90;;;;;;5032442;28;20219;-63
2022/09/29 02:22:58;;;;;;;2.45;1.33;;;9.20;99.90;;;;;;5032622;28;20608;-63
2022/09/29 02:25:25;;;;;;;2.60;1.50;;;9.30;99.90;;;;;;5032323;28;20245;-63
2022/09/29 02:27:53;;;;;;;2.28;1.10;;;9.30;99.90;;;;;;5032927;28;20637;-63
2022/09/29 02:30:20;;;;;;;2.15;1.35;;;9.30;99.90;;;;;;5035704;28;20187;-63
2022/09/29 02:32:47;;;;;;;2.33;1.45;;;9.30;99.90;;;;;;5035435;28;20231;-63
2022/09/29 02:35:16;;;;;;;2.33;1.30;;;9.30;99.90;;;;;;5035935;28;20227;-63
2022/09/29 02:38:01;;;;;;;2.03;1.30;;;9.40;99.90;;;;;;5035598;28;20215;-63
2022/09/29 02:40:43;;;;;;;2.00;1.10;;;9.30;99.90;;;;;;5035745;28;20203;-63
2022/09/29 02:43:24;;;;;;;1.90;1.15;;;9.30;99.90;;;;;;5035384;28;20237;-63
2022/09/29 02:46:06;;;;;;;1.80;1.00;;;9.40;99.90;;;;;;5035473;28;20191;-63
2022/09/29 02:48:59;;;;;;;2.38;1.20;;;9.40;99.90;;;;;;5035084;28;20260;-63
2022/09/29 02:51:33;;;;;;;5.10;1.48;;;9.40;99.90;;;;;;5029037;28;20207;-63
2022/09/29 02:54:13;;;;;;;2.22;1.60;;;9.40;99.90;;;;;;5035440;28;20195;-64
2022/09/29 02:56:49;;;;;;;2.08;1.40;;;9.30;99.90;;;;;;5035244;28;20690;-63
2022/09/29 02:59:23;;;;;;;2.30;2.00;;;9.30;99.90;;;;;;5035182;28;20245;-63
2022/09/29 03:01:52;;;;;;;5.78;2.28;;;9.30;99.90;;;;;;5035221;28;20197;-63
2022/09/29 03:04:22;;;;;;;2.92;2.10;;;9.30;99.90;;;;;;5035090;28;20195;-63
2022/09/29 03:06:51;;;;;;;2.85;1.83;;;9.30;99.90;;;;;;5035013;28;20294;-63
2022/09/29 03:09:18;;;;;;;2.60;1.65;;;9.30;99.90;;;;;;5035149;28;20313;-63
2022/09/29 03:11:45;;;;;;;2.50;1.60;;;9.30;99.90;;;;;;5034881;28;20195;-63
2022/09/29 03:14:12;;;;;;;3.58;1.50;;;9.30;99.90;;;;;;5034707;28;20191;-67
2022/09/29 03:16:39;;;;;;;2.40;1.60;;;9.30;99.90;;;;;;5034677;28;20191;-63
2022/09/29 03:19:06;;;;;;;2.22;1.50;;;9.30;99.90;;;;;;5034658;28;20222;-63
2022/09/29 03:21:34;;;;;;;2.28;1.50;;;9.30;99.90;;;;;;5034775;28;20221;-64
2022/09/29 03:24:03;;;;;;;2.38;1.45;;;9.40;99.90;;;;;;5034845;28;20240;-64
2022/09/29 03:26:30;;;;;;;2.40;1.38;;;9.30;99.90;;;;;;5034781;28;20191;-64
2022/09/29 03:28:56;;;;;;;3.13;1.50;;;9.30;99.90;;;;;;5034596;28;20194;-63
2022/09/29 03:31:23;;;;;;;2.20;1.40;;;9.40;99.90;;;;;;5034467;28;20226;-63
2022/09/29 03:33:50;;;;;;;2.80;2.42;;;9.40;99.90;;;;;;5034626;28;20195;-64
2022/09/29 03:36:17;;;;;;;2.63;2.13;;;9.40;99.90;;;;;;5034490;28;20230;-63
2022/09/29 03:38:46;;;;;;;2.05;1.45;;;9.40;99.90;;;;;;5033919;28;20219;-64
2022/09/29 03:41:14;;;;;;;4.88;1.88;;;9.40;99.90;;;;;;5034101;28;20195;-63
2022/09/29 03:43:41;;;;;;;3.05;2.25;;;9.40;99.90;;;;;;5034431;28;20325;-66
2022/09/29 03:46:08;;;;;;;2.47;1.50;;;9.40;99.90;;;;;;5034334;28;20191;-64
2022/09/29 03:48:35;;;;;;;2.10;1.10;;;9.50;99.90;;;;;;5033781;28;20215;-63
2022/09/29 03:51:02;;;;;;;2.00;1.30;;;9.50;99.90;;;;;;5034313;28;20273;-63
2022/09/29 03:53:29;;;;;;;2.00;1.10;;;9.50;99.90;;;;;;5034302;28;20266;-64
2022/09/29 03:55:57;;;;;;;2.30;1.40;;;9.40;99.90;;;;;;5034219;28;20230;-63
2022/09/29 03:58:25;;;;;;;2.60;1.50;;;9.40;99.90;;;;;;5034066;28;20219;-64
2022/09/29 04:00:52;;;;;;;2.10;1.30;;;9.40;99.90;;;;;;5034144;28;20253;-63
2022/09/29 04:03:19;;;;;;;2.67;1.50;;;9.40;99.90;;;;;;5034241;28;20195;-63
2022/09/29 04:05:47;;;;;;;2.50;1.42;;;9.40;99.90;;;;;;5034410;28;20253;-63
2022/09/29 04:08:15;;;;;;;2.40;1.50;;;9.40;99.90;;;;;;5034188;28;20649;-63
2022/09/29 04:10:42;;;;;;;2.20;1.20;;;9.40;99.90;;;;;;5034267;28;20638;-63
2022/09/29 04:13:09;;;;;;;2.30;1.27;;;9.50;99.90;;;;;;5034242;28;20198;-63
2022/09/29 04:15:37;;;;;;;2.70;1.60;;;9.50;99.90;;;;;;5034223;28;20199;-63
2022/09/29 04:18:05;;;;;;;1.73;1.00;;;9.50;99.90;;;;;;5034116;28;20238;-64
2022/09/29 04:20:32;;;;;;;2.17;1.40;;;9.50;99.90;;;;;;5034008;28;20245;-63
2022/09/29 04:22:59;;;;;;;2.22;1.42;;;9.50;99.90;;;;;;5034060;28;20629;-65
2022/09/29 04:25:26;;;;;;;2.50;1.90;;;9.50;99.90;;;;;;5034199;28;20201;-64
2022/09/29 04:27:54;;;;;;;3.40;2.10;;;9.50;99.90;;;;;;5033960;28;20194;-63
2022/09/29 04:30:21;;;;;;;2.53;1.95;;;9.50;99.90;;;;;;5033687;28;20226;-64
2022/09/29 04:32:49;;;;;;;4.63;2.60;;;9.50;99.90;;;;;;5033822;28;20245;-63
2022/09/29 04:35:16;;;;;;;3.38;2.63;;;9.60;99.90;;;;;;5033362;28;20198;-63
2022/09/29 04:37:43;;;;;;;4.63;2.50;;;9.50;99.90;;;;;;5033761;28;20318;-63
2022/09/29 04:40:11;;;;;;;3.70;2.88;;;9.50;99.90;;;;;;5033737;28;20254;-63
2022/09/29 04:42:38;;;;;;;3.05;2.55;;;9.50;99.90;;;;;;5033697;28;20195;-63
2022/09/29 04:45:06;;;;;;;2.85;2.55;;;9.50;99.90;;;;;;5033592;28;20222;-64
2022/09/29 04:47:33;;;;;;;4.75;2.97;;;9.50;99.90;;;;;;5033245;28;20226;-63
2022/09/29 04:50:01;;;;;;;4.30;3.15;;;9.50;99.90;;;;;;5033313;28;20253;-64
2022/09/29 04:52:28;;;;;;;5.82;3.10;;;9.50;99.90;;;;;;5033368;28;20274;-63
2022/09/29 04:54:55;;;;;;;4.22;3.05;;;9.50;99.90;;;;;;5033437;28;20281;-64
2022/09/29 04:57:22;;;;;;;3.45;2.95;;;9.40;99.90;;;;;;5033479;28;20195;-63
2022/09/29 04:59:50;;;;;;;3.90;3.10;;;9.40;99.90;;;;;;5033167;28;20664;-63
2022/09/29 05:02:18;;;;;;;5.63;3.25;;;9.40;99.90;;;;;;5033209;28;20191;-63
2022/09/29 05:04:46;;;;;;;3.70;2.60;;;9.40;99.90;;;;;;5033284;28;20537;-63
2022/09/29 05:07:15;;;;;;;3.20;2.50;;;9.30;99.90;;;;;;5033205;28;20195;-63
2022/09/29 05:09:42;;;;;;;3.70;2.70;;;9.30;99.90;;;;;;5033242;28;20245;-63
2022/09/29 05:12:09;;;;;;;3.90;2.42;;;9.30;99.90;;;;;;5033212;28;20608;-63
2022/09/29 05:14:36;;;;;;;5.35;2.90;;;9.30;99.90;;;;;;5033043;28;20634;-63
2022/09/29 05:17:03;;;;;;;3.53;2.20;;;9.30;99.90;;;;;;5032861;28;20245;-64
2022/09/29 05:19:31;;;;;;;4.00;2.45;;;9.30;99.90;;;;;;5032915;28;20266;-63
2022/09/29 05:21:58;;;;;;;3.30;2.20;;;9.30;99.90;;;;;;5032590;28;20194;-63
2022/09/29 05:24:27;;;;;;;3.40;2.40;;;9.20;99.90;;;;;;5033014;28;20188;-63
2022/09/29 05:26:55;;;;;;;5.38;2.72;;;9.20;99.90;;;;;;5032929;28;20187;-64
2022/09/29 05:29:22;;;;;;;4.40;3.40;;;9.20;99.90;;;;;;5032495;28;20225;-63
2022/09/29 05:31:49;;;;;;;4.40;2.70;;;9.20;99.90;;;;;;5032598;28;20209;-63
2022/09/29 05:34:16;;;;;;;2.80;1.75;;;9.20;99.90;;;;;;5032838;28;20194;-63
2022/09/29 05:36:43;;;;;;;2.63;1.55;;;9.30;99.90;;;;;;5032763;28;20195;-63
2022/09/29 05:39:10;;;;;;;2.15;1.33;;;9.20;99.90;;;;;;5032615;28;20254;-64
2022/09/29 05:41:39;;;;;;;2.20;1.40;;;9.20;99.90;;;;;;5033060;28;20231;-64
2022/09/29 05:44:06;;;;;;;2.05;1.23;;;9.20;99.90;;;;;;5032894;28;20276;-64
2022/09/29 05:46:33;;;;;;;3.65;1.50;;;9.10;99.90;;;;;;5032879;28;20187;-63
2022/09/29 05:49:00;;;;;;;2.25;1.60;;;9.10;99.90;;;;;;5032762;28;20631;-65
2022/09/29 05:51:27;;;;;;;2.60;1.60;;;9.10;99.90;;;;;;5032778;28;20199;-64
2022/09/29 05:53:55;;;;;;;4.05;1.30;;;9.20;99.90;;;;;;5032950;28;20190;-63
2022/09/29 05:56:23;;;;;;;2.30;1.67;;;9.20;99.90;;;;;;5032744;28;20218;-63
2022/09/29 05:58:53;;;;;;;2.20;1.40;;;9.30;99.90;;;;;;5032806;28;21376;-63
2022/09/29 06:01:22;;;;;;;1.98;1.23;;;9.40;99.90;;;;;;5032629;28;20241;-63
2022/09/29 06:03:50;;;;;;;2.20;1.75;;;9.40;99.90;;;;;;5035497;28;20191;-63
2022/09/29 06:06:19;;;;;;;2.30;1.23;;;9.50;99.90;;;;;;5036376;28;20210;-63
2022/09/29 06:08:47;;;;;;;2.28;1.27;;;9.50;99.90;;;;;;5036616;28;20191;-63
2022/09/29 06:11:15;;;;;;;2.55;1.25;;;9.60;99.90;;;;;;5036537;28;20231;-63
2022/09/29 06:13:45;;;;;;;2.30;1.08;;;9.60;99.90;;;;;;5036440;28;20233;-65
2022/09/29 06:16:15;;;;;;;2.15;1.23;;;9.70;99.90;;;;;;5036395;28;20195;-63
2022/09/29 06:18:42;;;;;;;2.80;1.55;;;9.70;99.90;;;;;;5036400;28;20250;-63
2022/09/29 06:21:11;;;;;;;2.40;1.45;;;9.70;99.90;;;;;;5036176;28;20191;-63
2022/09/29 06:23:38;;;;;;;2.75;1.75;;;9.70;99.90;;;;;;5036248;28;20191;-63
2022/09/29 06:26:07;;;;;;;3.13;2.17;;;9.80;99.90;;;;;;5036273;28;20722;-64
2022/09/29 06:28:34;;;;;;;4.40;2.33;;;9.80;99.90;;;;;;5036053;28;20226;-64
2022/09/29 06:31:03;;;;;;;3.88;2.22;;;9.90;99.90;;;;;;5036215;28;20233;-64
2022/09/29 06:33:33;;;;;;;3.60;2.38;;;10.00;99.90;;;;;;5035926;28;20191;-64
2022/09/29 06:38:47;;;;;;;3.72;2.00;;;10.00;99.90;;;;;;5036065;28;20218;-63
2022/09/29 06:41:14;;;;;;;3.75;2.38;;;10.10;99.90;;;;;;5036020;28;20219;-63
2022/09/29 06:43:41;;;;;;;3.67;2.40;;;10.20;99.90;;;;;;5035906;28;20226;-63
2022/09/29 06:46:08;;;;;;;3.63;2.15;;;10.20;99.90;;;;;;5035778;28;20188;-64
2022/09/29 06:48:36;;;;;;;5.25;2.40;;;10.30;99.80;;;;;;5035777;28;20293;-64
2022/09/29 06:51:07;;;;;;;3.53;2.55;;;10.30;99.80;;;;;;5035798;28;20199;-64
2022/09/29 06:53:35;;;;;;;3.55;2.47;;;10.30;99.70;;;;;;5036017;28;20201;-64
2022/09/29 06:56:02;;;;;;;7.75;2.50;;;10.30;99.50;;;;;;5035675;28;20558;-63
2022/09/29 06:58:30;;;;;;;3.65;2.47;;;10.30;99.20;;;;;;5035429;28;20707;-64
2022/09/29 07:01:00;;;;;;;4.70;2.55;;;10.40;99.30;;;;;;5035584;28;20543;-63
2022/09/29 07:03:27;;;;;;;6.93;2.70;;;10.40;99.40;;;;;;5035643;28;20202;-63
2022/09/29 07:05:56;;;;;;;4.93;2.75;;;10.40;99.50;;;;;;5035468;28;20286;-63
2022/09/29 07:08:23;;;;;;;3.40;2.38;;;10.40;99.70;;;;;;5035406;28;20234;-63
2022/09/29 07:10:49;;;;;;;4.15;2.47;;;10.50;99.90;;;;;;5035548;28;20221;-63
2022/09/29 07:13:17;;;;;;;10.10;1.95;;;10.60;99.90;;;;;;5035270;28;20241;-64
2022/09/29 07:15:46;;;;;;;2.35;1.60;;;10.60;99.80;;;;;;5034170;28;20225;-64
2022/09/29 07:18:14;;;;;;;3.38;1.85;;;10.70;99.80;;;;;;5035315;28;20646;-63
2022/09/29 07:20:41;;;;;;;3.00;1.65;;;10.80;99.70;;;;;;5035164;28;20288;-63
2022/09/29 07:23:09;;;;;;;4.88;4.30;;;10.80;99.60;;;;;;5034912;28;20226;-64
2022/09/29 07:25:36;;;;;;;3.72;1.77;;;10.90;99.70;;;;;;5035232;28;20368;-64
2022/09/29 07:28:03;;;;;;;4.05;1.70;;;10.90;99.80;;;;;;5035277;28;20191;-64
2022/09/29 07:30:30;;;;;;;3.00;2.38;;;11.00;99.70;;;;;;5034949;28;20231;-64
2022/09/29 07:32:57;;;;;;;3.90;3.50;;;11.10;99.80;;;;;;5034979;28;20195;-63
2022/09/29 07:35:24;;;;;;;5.60;2.35;;;11.20;99.50;;;;;;5035050;28;20191;-63
2022/09/29 07:37:52;;;;;;;3.58;2.42;;;11.30;98.90;;;;;;5034815;28;20191;-64
2022/09/29 07:40:21;;;;;;;3.28;2.65;;;11.30;98.60;;;;;;5034489;28;20215;-64
2022/09/29 07:42:48;;;;;;;5.15;2.10;;;11.40;98.60;;;;;;5034736;28;20191;-64
2022/09/29 07:45:15;;;;;;;4.05;2.25;;;11.40;98.30;;;;;;5034715;28;20245;-64
2022/09/29 07:47:42;;;;;;;3.90;2.78;;;11.40;98.10;;;;;;5034416;28;20743;-63
2022/09/29 07:50:09;;;;;;;3.50;2.90;;;11.40;97.90;;;;;;5034651;28;20226;-63
2022/09/29 07:52:36;;;;;;;4.57;2.40;;;11.40;97.70;;;;;;5034610;28;20875;-64
2022/09/29 07:55:04;;;;;;;4.25;2.55;;;11.40;97.80;;;;;;5034433;28;20191;-64
2022/09/29 07:57:32;;;;;;;3.92;2.80;;;11.40;98.00;;;;;;5034568;28;20195;-64
2022/09/29 07:59:59;;;;;;;3.65;2.97;;;11.40;98.10;;;;;;5034256;28;20304;-64
2022/09/29 08:02:26;;;;;;;4.25;3.50;;;11.50;98.40;;;;;;5034519;28;20586;-63
2022/09/29 08:04:53;;;;;;;3.40;2.65;;;11.50;98.60;;;;;;5034519;28;20249;-63
2022/09/29 08:07:20;;;;;;;3.03;2.60;;;11.60;98.80;;;;;;5034143;28;20249;-63
2022/09/29 08:09:47;;;;;;;3.10;2.45;;;11.60;98.80;;;;;;5034287;28;20199;-64
2022/09/29 08:12:15;;;;;;;4.47;2.95;;;11.60;98.50;;;;;;5034203;28;20191;-63
2022/09/29 08:14:43;;;;;;;3.50;2.45;;;11.70;98.60;;;;;;5034325;28;20600;-64
2022/09/29 08:17:10;;;;;;;3.80;1.92;;;11.70;98.80;;;;;;5034037;28;20191;-63
2022/09/29 08:19:37;;;;;;;3.60;2.80;;;11.80;98.90;;;;;;5033889;28;20265;-64
2022/09/29 08:22:04;;;;;;;2.95;2.15;;;11.80;98.70;;;;;;5033907;28;20711;-64
2022/09/29 08:24:31;;;;;;;4.07;2.13;;;11.80;98.70;;;;;;5034105;28;20235;-64
2022/09/29 08:26:58;;;;;;;4.50;2.30;;;12.00;98.90;;;;;;5033919;28;20191;-63
2022/09/29 08:29:24;;;;;;;2.70;2.00;;;12.10;98.80;;;;;;5034007;28;20863;-63
2022/09/29 08:31:55;;;;;;;2.63;1.90;;;12.10;98.30;;;;;;5033848;28;20199;-63
2022/09/29 08:34:22;;;;;;;3.20;2.20;;;12.20;98.20;;;;;;5033841;28;20194;-63
2022/09/29 08:36:48;;;;;;;2.70;2.08;;;12.20;97.60;;;;;;5033708;28;20522;-63
2022/09/29 08:39:15;;;;;;;3.60;1.80;;;12.30;97.80;;;;;;5033107;28;20207;-63
2022/09/29 08:41:57;;;;;;;2.70;1.90;;;12.30;98.00;;;;;;5033574;28;20191;-63
2022/09/29 08:44:32;;;;;;;3.30;1.80;;;12.30;97.80;;;;;;5033726;28;20928;-64
2022/09/29 08:47:07;;;;;;;2.27;1.30;;;12.30;97.20;;;;;;5033456;28;20434;-64
2022/09/29 08:49:39;;;;;;;2.97;2.03;;;12.30;96.80;;;;;;5033288;28;20980;-63
2022/09/29 08:52:11;;;;;;;2.53;1.60;;;12.40;96.50;;;;;;5033304;28;20441;-63
2022/09/29 08:54:41;;;;;;;2.40;1.48;;;12.30;96.60;;;;;;5033391;28;20449;-63
2022/09/29 08:57:17;;;;;;;2.70;1.70;;;12.40;96.60;;;;;;5033396;28;20665;-63
2022/09/29 08:59:48;;;;;;;2.40;1.50;;;12.40;96.60;;;;;;5033490;28;20513;-64
2022/09/29 09:02:54;;;;;;;2.73;1.47;;;12.30;96.50;;;;;;5033411;28;20532;-64
2022/09/29 09:05:37;;;;;;;3.72;2.78;;;12.30;96.50;;;;;;5033089;28;20437;-63
2022/09/29 09:08:15;;;;;;;2.20;1.73;;;12.40;96.40;;;;;;5033329;28;20190;-64
2022/09/29 09:10:46;;;;;;;2.40;1.73;;;12.40;96.40;;;;;;5033254;28;20195;-63
2022/09/29 09:13:39;;;;;;;2.33;1.47;;;12.40;96.80;;;;;;5033364;28;20555;-64
2022/09/29 09:16:21;;;;;;;2.08;1.13;;;12.40;96.70;;;;;;5033142;28;20469;-64
2022/09/29 09:19:09;;;;;;;4.33;1.57;;;12.40;96.70;;;;;;5033195;28;20525;-63
2022/09/29 09:21:41;;;;;;;2.00;1.27;;;12.40;96.50;;;;;;5033291;28;20487;-64
2022/09/29 09:24:25;;;;;;;2.40;1.65;;;12.40;96.50;;;;;;5033181;28;20444;-63
2022/09/29 09:26:53;;;;;;;2.10;1.27;;;12.40;96.30;;;;;;5033069;28;20202;-64
2022/09/29 09:29:26;;;;;;;3.17;1.50;;;12.40;96.40;;;;;;5033047;28;20998;-64
2022/09/29 09:31:59;;;;;;;2.60;1.70;;;12.40;96.30;;;;;;5033027;28;20838;-64
2022/09/29 09:34:33;;;;;;;2.43;1.10;;;12.40;96.30;;;;;;5033233;28;20444;-63
2022/09/29 09:37:04;;;;;;;3.27;1.70;;;12.40;96.20;;;;;;5033053;28;20488;-66
2022/09/29 09:39:34;;;;;;;2.07;1.07;;;12.30;96.00;;;;;;5037247;28;20485;-64
2022/09/29 09:42:07;;;;;;;2.20;1.40;;;12.30;96.10;;;;;;5037413;28;20469;-64
2022/09/29 09:44:38;;;;;;;3.70;2.30;;;12.30;96.40;;;;;;5036970;28;20477;-64
2022/09/29 09:47:18;;;;;;;1.80;1.20;;;12.30;96.30;;;;;;5036889;28;20249;-64
2022/09/29 09:49:53;;;;;;;2.15;1.17;;;12.30;96.40;;;;;;5037067;28;20625;-63
2022/09/29 09:52:24;;;;;;;4.30;1.27;;;12.30;96.70;;;;;;5036745;28;20283;-63
2022/09/29 09:54:54;;;;;;;2.13;1.35;;;12.30;97.00;;;;;;5036809;28;20480;-63
2022/09/29 09:57:45;;;;;;;3.70;1.33;;;12.40;96.90;;;;;;5036913;28;20191;-63
2022/09/29 10:00:14;;;;;;;2.17;1.30;;;12.50;96.80;;;;;;5036357;28;20535;-64
2022/09/29 10:02:48;;;;;;;2.33;1.30;;;12.60;96.70;;;;;;5036721;28;20504;-63
2022/09/29 10:05:18;;;;;;;2.27;1.50;;;12.80;97.10;;;;;;5036428;28;20491;-64
2022/09/29 10:07:47;;;;;;;2.37;1.30;;;12.90;96.90;;;;;;5036543;28;20975;-64
2022/09/29 10:10:18;;;;;;;3.10;1.33;;;13.10;96.60;;;;;;5036626;28;20472;-63
2022/09/29 10:12:46;;;;;;;1.80;1.00;;;13.20;96.70;;;;;;5036298;28;20441;-63
2022/09/29 10:15:19;;;;;;;4.10;1.57;;;13.20;95.80;;;;;;5036312;28;20441;-63
2022/09/29 10:17:53;;;;;;;3.23;1.67;;;13.30;95.30;;;;;;5036071;28;20503;-64
2022/09/29 10:20:34;;;;;;;2.17;1.30;;;13.20;94.90;;;;;;5036360;28;20879;-63
2022/09/29 10:23:26;;;;;;;3.90;1.73;;;13.20;94.80;;;;;;5036483;28;20531;-65
2022/09/29 10:25:57;;;;;;;2.40;1.40;;;13.20;94.60;;;;;;5033140;28;20932;-64
2022/09/29 10:28:26;;;;;;;2.23;1.30;;;13.20;94.50;;;;;;5036117;28;20767;-64
2022/09/29 10:30:55;;;;;;;3.27;1.53;;;13.20;94.60;;;;;;5036145;28;20446;-63
2022/09/29 10:33:24;;;;;;;4.40;1.33;;;13.20;94.40;;;;;;5036199;28;20496;-64
2022/09/29 10:36:07;;;;;;;2.40;1.43;;;13.20;94.50;;;;;;5036133;28;20442;-64
2022/09/29 10:38:36;;;;;;;2.50;1.20;;;13.20;94.30;;;;;;5036124;28;20470;-64
2022/09/29 10:41:05;;;;;;;2.80;1.40;;;13.10;94.10;;;;;;5036132;28;20492;-64
2022/09/29 10:43:36;;;;;;;3.07;1.57;;;13.10;94.10;;;;;;5035765;28;20437;-64
2022/09/29 10:46:04;;;;;;;2.30;1.40;;;13.00;94.10;;;;;;5035702;28;20935;-63
2022/09/29 10:48:32;;;;;;;2.27;1.57;;;13.00;94.40;;;;;;5035278;28;20469;-64
2022/09/29 10:51:02;;;;;;;2.20;1.60;;;13.00;94.90;;;;;;5035928;28;20441;-64
2022/09/29 10:53:40;;;;;;;2.27;1.30;;;13.00;94.90;;;;;;5036307;28;20851;-64
2022/09/29 10:56:16;;;;;;;2.00;1.10;;;13.00;94.90;;;;;;5035866;28;20473;-64
2022/09/29 10:58:45;;;;;;;2.03;1.27;;;13.00;94.70;;;;;;5035745;28;20793;-64
2022/09/29 11:01:14;;;;;;;2.30;1.50;;;13.10;94.70;;;;;;5035389;28;20525;-64
2022/09/29 11:03:48;;;;;;;3.47;1.30;;;13.10;95.00;;;;;;5035528;28;20470;-63
2022/09/29 11:06:17;;;;;;;2.70;1.87;;;13.20;94.90;;;;;;5035645;28;20441;-63
2022/09/29 11:09:01;;;;;;;3.10;1.80;;;13.20;95.00;;;;;;5035618;28;20433;-63
2022/09/29 11:11:30;;;;;;;2.30;1.37;;;13.20;94.90;;;;;;5035522;28;20521;-63
2022/09/29 11:13:58;;;;;;;2.50;1.20;;;13.20;94.80;;;;;;5035389;28;20801;-63
2022/09/29 11:16:31;;;;;;;3.70;1.90;;;13.20;94.80;;;;;;5035341;28;20442;-63
2022/09/29 11:19:04;;;;;;;2.60;1.87;;;13.20;94.50;;;;;;5035414;28;20784;-64
2022/09/29 11:22:05;;;;;;;2.40;1.10;;;13.20;94.50;;;;;;5035266;28;20517;-64
2022/09/29 11:25:07;;;;;;;2.67;1.57;;;13.10;94.70;;;;;;5035130;28;20502;-64
2022/09/29 11:27:50;;;;;;;3.03;1.70;;;13.10;94.50;;;;;;5035029;28;20437;-64
2022/09/29 11:30:20;;;;;;;2.50;1.40;;;13.00;94.20;;;;;;5035205;28;20789;-66
2022/09/29 11:33:03;;;;;;;2.17;1.40;;;12.90;94.20;;;;;;5034894;28;20464;-63
2022/09/29 11:35:44;;;;;;;2.43;1.67;;;12.90;94.30;;;;;;5034843;28;20441;-64
2022/09/29 11:38:26;;;;;;;2.83;1.83;;;12.80;94.10;;;;;;5035055;28;20520;-64
2022/09/29 11:41:04;;;;;;;2.50;1.30;;;12.70;94.40;;;;;;5034875;28;21053;-64
2022/09/29 11:43:47;;;;;;;3.20;1.30;;;12.70;94.80;;;;;;5034459;28;20430;-63
2022/09/29 11:46:35;;;;;;;3.70;1.37;;;12.60;95.00;;;;;;5034839;28;20434;-63
2022/09/29 11:49:33;;;;;;;3.47;1.50;;;12.60;95.40;;;;;;5034637;28;20469;-64
2022/09/29 11:52:12;;;;;;;5.27;1.90;;;12.60;95.50;;;;;;5013739;28;20538;-65
2022/09/29 11:54:56;;;;;;;2.30;1.33;;;12.50;95.50;;;;;;5034635;28;20449;-63
2022/09/29 11:57:32;;;;;;;2.37;1.47;;;12.50;95.70;;;;;;5034454;28;20449;-63
2022/09/29 12:00:07;;;;;;;2.80;1.50;;;12.50;95.80;;;;;;5033917;28;20480;-63
2022/09/29 12:03:06;;;;;;;3.60;1.43;;;12.50;95.80;;;;;;5034506;28;20442;-64
2022/09/29 12:05:43;;;;;;;4.07;1.37;;;12.50;96.00;;;;;;5034447;28;20446;-64
2022/09/29 12:08:20;;;;;;;2.10;1.50;;;12.50;96.30;;;;;;5034195;28;20959;-63
2022/09/29 12:10:58;;;;;;;2.58;1.60;;;12.50;96.40;;;;;;5034367;28;20500;-64
2022/09/29 12:13:36;;;;;;;1.90;1.13;;;12.60;97.00;;;;;;5034454;28;20238;-63
2022/09/29 12:16:09;;;;;;;3.87;1.50;;;12.60;97.20;;;;;;5034179;28;20521;-64
2022/09/29 12:18:40;;;;;;;2.30;1.25;;;12.60;97.30;;;;;;5034256;28;20469;-64
2022/09/29 12:21:09;;;;;;;2.22;1.42;;;12.70;97.40;;;;;;5034114;28;20254;-64
2022/09/29 12:23:40;;;;;;;2.17;1.27;;;12.80;97.40;;;;;;5034077;28;20195;-64
2022/09/29 12:26:14;;;;;;;2.00;1.10;;;12.80;97.20;;;;;;5033785;28;20492;-63
2022/09/29 12:28:46;;;;;;;2.63;1.60;;;13.00;97.10;;;;;;5033766;28;20465;-63
2022/09/29 12:31:20;;;;;;;2.10;1.63;;;13.00;96.90;;;;;;5033630;28;20485;-63
2022/09/29 12:33:50;;;;;;;3.87;1.63;;;13.10;96.70;;;;;;5033828;28;20893;-64
2022/09/29 12:36:45;;;;;;;3.10;1.53;;;13.10;96.70;;;;;;5033767;28;20494;-64
2022/09/29 12:39:24;;;;;;;2.30;1.30;;;13.10;96.50;;;;;;5033668;28;20441;-64
2022/09/29 12:42:10;;;;;;;2.50;1.53;;;13.20;96.70;;;;;;5033676;28;20222;-64
2022/09/29 12:44:43;;;;;;;2.80;1.70;;;13.20;96.50;;;;;;5033806;28;20433;-64
2022/09/29 12:47:19;;;;;;;2.20;1.20;;;13.40;96.50;;;;;;5033399;28;20441;-64
2022/09/29 12:50:01;;;;;;;2.80;1.60;;;13.50;96.50;;;;;;5033469;28;20495;-64
2022/09/29 12:52:37;;;;;;;2.53;1.70;;;13.50;96.10;;;;;;5033710;28;20484;-64
2022/09/29 12:55:14;;;;;;;3.00;1.60;;;13.60;95.90;;;;;;5033353;28;20422;-64
2022/09/29 12:57:46;;;;;;;3.70;1.77;;;13.60;95.80;;;;;;5033353;28;20457;-65
2022/09/29 13:00:17;;;;;;;2.37;1.47;;;13.50;95.50;;;;;;5033276;28;20478;-64
2022/09/29 13:03:07;;;;;;;2.67;1.77;;;13.50;95.10;;;;;;5033085;28;20995;-64
2022/09/29 13:06:04;;;;;;;2.97;1.93;;;13.50;95.10;;;;;;5033310;28;20533;-64
2022/09/29 13:08:44;;;;;;;3.70;1.87;;;13.40;95.00;;;;;;5033301;28;20473;-64
2022/09/29 13:11:46;;;;;;;3.43;2.30;;;13.40;94.90;;;;;;5033339;28;20908;-64
2022/09/29 13:14:35;;;;;;;2.80;1.90;;;13.40;94.90;;;;;;5033301;28;20437;-64
2022/09/29 13:17:18;;;;;;;2.90;1.67;;;13.30;94.80;;;;;;5033018;28;20484;-65
2022/09/29 13:20:06;;;;;;;2.87;1.90;;;13.30;95.20;;;;;;5033253;28;20829;-64